Time;durP1;ratioP1;P1;durP2;ratioP2;P2;SDS_P1;SDS_P2;PMS_P1;PMS_P2;Temp;Humidity;BMP_temperature;BMP_pressure;BME280_temperature;BME280_humidity;BME280_pressure;Samples;Min_cycle;Max_cycle;Signal;HPM_P1;HPM_P2
2022/07/06 00:01:44;;;;;;;4.28;1.40;;;16.40;93.00;;;;;;5028383;28;20096;-44
2022/07/06 00:04:09;;;;;;;4.45;1.75;;;16.30;93.30;;;;;;5027243;28;20104;-45
2022/07/06 00:06:35;;;;;;;7.00;1.50;;;16.30;93.70;;;;;;5028175;28;20088;-44
2022/07/06 00:09:02;;;;;;;2.92;1.63;;;16.30;94.00;;;;;;5034170;28;20025;-44
2022/07/06 00:11:27;;;;;;;4.20;1.60;;;16.30;94.30;;;;;;5035336;28;20056;-45
2022/07/06 00:13:53;;;;;;;3.60;1.60;;;16.20;94.50;;;;;;5031267;28;20061;-45
2022/07/06 00:16:18;;;;;;;2.80;1.58;;;16.20;94.80;;;;;;5031301;28;20300;-46
2022/07/06 00:18:45;;;;;;;3.17;1.50;;;16.20;95.10;;;;;;5031611;28;20040;-46
2022/07/06 00:21:11;;;;;;;6.97;1.92;;;16.20;95.40;;;;;;5031670;28;20583;-45
2022/07/06 00:23:36;;;;;;;2.20;1.40;;;16.10;95.80;;;;;;5029638;28;20029;-44
2022/07/06 00:26:02;;;;;;;5.68;2.15;;;16.10;96.00;;;;;;5030564;28;20029;-45
2022/07/06 00:28:28;;;;;;;3.53;1.58;;;16.10;96.60;;;;;;5030177;28;20025;-44
2022/07/06 00:30:53;;;;;;;5.05;1.52;;;16.10;96.70;;;;;;5030097;28;20117;-45
2022/07/06 00:33:19;;;;;;;4.65;1.73;;;16.10;97.00;;;;;;5031301;28;20037;-45
2022/07/06 00:35:45;;;;;;;4.82;1.55;;;15.90;97.30;;;;;;5030881;28;20048;-45
2022/07/06 00:38:10;;;;;;;4.22;1.90;;;15.90;97.80;;;;;;5036709;28;20021;-45
2022/07/06 00:40:36;;;;;;;3.10;1.75;;;15.80;98.20;;;;;;5042925;28;20458;-45
2022/07/06 00:43:01;;;;;;;6.40;1.60;;;15.80;98.60;;;;;;5040452;28;20041;-46
2022/07/06 00:45:27;;;;;;;3.55;1.67;;;15.70;98.90;;;;;;5030727;28;20438;-45
2022/07/06 00:47:52;;;;;;;5.53;1.65;;;15.70;99.40;;;;;;5031430;28;20053;-45
2022/07/06 00:50:20;;;;;;;4.45;1.90;;;15.70;99.70;;;;;;5031323;28;20025;-45
2022/07/06 00:52:52;;;;;;;4.00;1.80;;;15.60;99.90;;;;;;5030686;28;20025;-47
2022/07/06 00:55:20;;;;;;;3.88;1.83;;;15.60;99.90;;;;;;5030508;28;20037;-45
2022/07/06 00:57:47;;;;;;;5.68;1.33;;;15.50;99.90;;;;;;5030784;28;20033;-45
2022/07/06 01:00:15;;;;;;;9.48;2.20;;;15.50;99.90;;;;;;5031134;28;20438;-45
2022/07/06 01:02:41;;;;;;;3.25;1.63;;;15.50;99.90;;;;;;5029668;28;20028;-45
2022/07/06 01:05:09;;;;;;;4.60;2.00;;;15.50;99.90;;;;;;5030509;28;20034;-47
2022/07/06 01:07:36;;;;;;;7.38;1.73;;;15.50;99.90;;;;;;5031455;28;20032;-45
2022/07/06 01:10:03;;;;;;;5.35;1.88;;;15.50;99.90;;;;;;5042653;28;20028;-45
2022/07/06 01:12:29;;;;;;;3.92;1.70;;;15.50;99.90;;;;;;5050954;28;20032;-46
2022/07/06 01:14:55;;;;;;;16.83;2.53;;;15.50;99.90;;;;;;5033263;28;20091;-45
2022/07/06 01:17:21;;;;;;;6.45;1.70;;;15.50;99.90;;;;;;5030366;28;20029;-45
2022/07/06 01:19:47;;;;;;;9.00;2.20;;;15.50;99.90;;;;;;5030264;28;20041;-45
2022/07/06 01:22:12;;;;;;;3.38;1.55;;;15.50;99.90;;;;;;5030362;28;20026;-46
2022/07/06 01:24:38;;;;;;;3.83;1.60;;;15.50;99.90;;;;;;5029833;28;20552;-45
2022/07/06 01:27:05;;;;;;;4.63;1.67;;;15.40;99.90;;;;;;5030537;28;20029;-48
2022/07/06 01:29:31;;;;;;;3.63;2.05;;;15.40;99.90;;;;;;5030164;28;20037;-46
2022/07/06 01:31:57;;;;;;;4.68;2.30;;;15.30;99.90;;;;;;5030315;28;20467;-45
2022/07/06 01:34:22;;;;;;;4.47;2.20;;;15.20;99.90;;;;;;5029028;28;20033;-45
2022/07/06 01:36:48;;;;;;;7.13;2.00;;;15.20;99.90;;;;;;5030438;28;20030;-45
2022/07/06 01:39:14;;;;;;;4.53;1.90;;;15.20;99.90;;;;;;5038265;28;20545;-45
2022/07/06 01:41:39;;;;;;;8.23;2.50;;;15.10;99.90;;;;;;5047810;28;20058;-45
2022/07/06 01:44:05;;;;;;;7.22;1.75;;;15.10;99.90;;;;;;5029368;28;20289;-45
2022/07/06 01:46:31;;;;;;;7.28;2.13;;;15.10;99.90;;;;;;5029759;28;20302;-46
2022/07/06 01:48:56;;;;;;;5.65;2.50;;;15.20;99.90;;;;;;5030397;28;20412;-46
2022/07/06 01:51:23;;;;;;;3.45;2.10;;;15.20;99.90;;;;;;5029913;28;20564;-46
2022/07/06 01:53:49;;;;;;;13.63;2.20;;;15.20;99.90;;;;;;5029254;28;20308;-45
2022/07/06 01:56:14;;;;;;;5.00;1.95;;;15.20;99.90;;;;;;5029093;28;20039;-45
2022/07/06 01:58:40;;;;;;;7.47;2.03;;;15.30;99.90;;;;;;5029733;28;20116;-47
2022/07/06 02:01:10;;;;;;;6.68;2.13;;;15.20;99.90;;;;;;5029539;28;20064;-45
2022/07/06 02:03:36;;;;;;;4.93;2.00;;;15.20;99.90;;;;;;5029489;28;20542;-46
2022/07/06 02:06:02;;;;;;;2.90;2.05;;;15.20;99.90;;;;;;5027706;28;20116;-46
2022/07/06 02:08:28;;;;;;;4.72;1.88;;;15.20;99.90;;;;;;5037267;28;20025;-45
2022/07/06 02:10:53;;;;;;;6.90;2.35;;;15.20;99.90;;;;;;5041275;28;20490;-46
2022/07/06 02:13:19;;;;;;;4.03;1.70;;;15.10;99.90;;;;;;5046609;28;20043;-47
2022/07/06 02:15:44;;;;;;;4.65;2.22;;;15.20;99.90;;;;;;5028919;28;20037;-45
2022/07/06 02:18:10;;;;;;;6.30;2.00;;;15.20;99.90;;;;;;5029879;28;20060;-45
2022/07/06 02:20:35;;;;;;;4.15;2.10;;;15.20;99.90;;;;;;5029494;28;20029;-45
2022/07/06 02:23:01;;;;;;;7.80;1.88;;;15.10;99.90;;;;;;5027923;28;20459;-45
2022/07/06 02:25:26;;;;;;;6.47;2.10;;;15.20;99.90;;;;;;5028946;28;20477;-45
2022/07/06 02:27:52;;;;;;;9.10;2.17;;;15.10;99.90;;;;;;5029301;28;20076;-45
2022/07/06 02:30:17;;;;;;;4.45;1.90;;;15.10;99.90;;;;;;5028893;28;20121;-45
2022/07/06 02:32:43;;;;;;;4.18;2.03;;;15.10;99.90;;;;;;5027770;28;20029;-45
2022/07/06 02:35:09;;;;;;;8.85;2.28;;;15.10;99.90;;;;;;5028471;28;20038;-45
2022/07/06 02:37:34;;;;;;;7.32;2.30;;;15.10;99.90;;;;;;5030119;28;20567;-45
2022/07/06 02:40:00;;;;;;;3.63;1.85;;;15.10;99.90;;;;;;5040517;28;20562;-45
2022/07/06 02:42:25;;;;;;;4.55;1.85;;;15.10;99.90;;;;;;5043119;28;20075;-45
2022/07/06 02:44:53;;;;;;;4.63;2.00;;;15.10;99.90;;;;;;5028512;28;20057;-45
2022/07/06 02:47:19;;;;;;;4.03;2.30;;;15.10;99.90;;;;;;5027636;28;20435;-45
2022/07/06 02:49:44;;;;;;;5.95;2.03;;;15.10;99.90;;;;;;5028992;28;20307;-45
2022/07/06 02:52:09;;;;;;;6.35;2.15;;;15.10;99.90;;;;;;5028719;28;20399;-45
2022/07/06 02:54:35;;;;;;;4.32;2.25;;;15.10;99.90;;;;;;5027875;28;20079;-46
2022/07/06 02:57:00;;;;;;;6.85;2.28;;;15.10;99.90;;;;;;5029105;28;20371;-45
2022/07/06 02:59:26;;;;;;;5.45;2.28;;;15.10;99.90;;;;;;5028500;28;20041;-45
2022/07/06 03:01:51;;;;;;;8.52;2.30;;;15.00;99.90;;;;;;5028538;28;20506;-46
2022/07/06 03:04:17;;;;;;;6.03;1.85;;;15.00;99.90;;;;;;5028103;28;20022;-46
2022/07/06 03:06:42;;;;;;;5.07;2.03;;;15.10;99.90;;;;;;5028625;28;20017;-45
2022/07/06 03:09:08;;;;;;;3.28;1.90;;;15.10;99.90;;;;;;5034973;28;20356;-45
2022/07/06 03:11:36;;;;;;;4.85;2.13;;;15.00;99.90;;;;;;5045863;28;20111;-45
2022/07/06 03:14:03;;;;;;;8.00;2.10;;;15.00;99.90;;;;;;5038937;28;20031;-47
2022/07/06 03:16:29;;;;;;;3.47;1.92;;;15.00;99.90;;;;;;5027342;28;20028;-46
2022/07/06 03:18:54;;;;;;;2.70;1.60;;;14.90;99.90;;;;;;5028494;28;20029;-45
2022/07/06 03:21:20;;;;;;;4.35;2.00;;;14.90;99.90;;;;;;5028504;28;20292;-45
2022/07/06 03:23:45;;;;;;;7.15;1.92;;;14.90;99.90;;;;;;5028086;28;20104;-45
2022/07/06 03:26:11;;;;;;;4.50;1.70;;;14.90;99.90;;;;;;5028125;28;20018;-46
2022/07/06 03:28:36;;;;;;;7.75;2.50;;;14.90;99.90;;;;;;5027998;28;20037;-45
2022/07/06 03:31:01;;;;;;;7.25;2.08;;;14.90;99.90;;;;;;5028429;28;20025;-45
2022/07/06 03:33:27;;;;;;;9.50;2.28;;;14.90;99.90;;;;;;5028611;28;20245;-45
2022/07/06 03:35:54;;;;;;;5.18;1.85;;;14.90;99.90;;;;;;5027582;28;20052;-45
2022/07/06 03:38:19;;;;;;;6.45;1.45;;;14.80;99.90;;;;;;5034963;28;20036;-45
2022/07/06 03:40:44;;;;;;;2.55;1.73;;;14.90;99.90;;;;;;5024152;28;20056;-46
2022/07/06 03:43:10;;;;;;;4.43;1.73;;;14.90;99.90;;;;;;5027469;28;20460;-45
2022/07/06 03:45:35;;;;;;;6.53;1.85;;;14.90;99.90;;;;;;5031257;28;20039;-48
2022/07/06 03:48:01;;;;;;;6.15;2.38;;;14.90;99.90;;;;;;5032314;28;20033;-46
2022/07/06 03:50:27;;;;;;;5.32;1.58;;;14.90;99.90;;;;;;5032256;28;20048;-46
2022/07/06 03:52:52;;;;;;;5.15;2.00;;;14.90;99.90;;;;;;5031879;28;20048;-45
2022/07/06 03:55:18;;;;;;;7.93;1.98;;;14.80;99.90;;;;;;5030925;28;20098;-45
2022/07/06 03:57:43;;;;;;;8.15;2.28;;;14.80;99.90;;;;;;5029318;28;20548;-45
2022/07/06 04:00:10;;;;;;;5.85;2.17;;;14.80;99.90;;;;;;5032461;28;20551;-44
2022/07/06 04:02:35;;;;;;;8.68;2.53;;;14.80;99.90;;;;;;5033454;28;20053;-45
2022/07/06 04:05:01;;;;;;;2.85;1.85;;;14.70;99.90;;;;;;5031475;28;20474;-45
2022/07/06 04:07:26;;;;;;;3.08;1.85;;;14.70;99.90;;;;;;5033755;28;20475;-44
2022/07/06 04:09:52;;;;;;;4.45;1.67;;;14.70;99.90;;;;;;5041257;28;20028;-47
2022/07/06 04:12:17;;;;;;;2.47;1.58;;;14.70;99.90;;;;;;5033479;28;20557;-44
2022/07/06 04:14:43;;;;;;;4.00;2.00;;;14.70;99.90;;;;;;5032648;28;20041;-44
2022/07/06 04:19:53;;;;;;;4.57;2.00;;;14.70;99.90;;;;;;5033612;28;20033;-44
2022/07/06 04:22:18;;;;;;;2.97;1.80;;;14.70;99.90;;;;;;5033207;28;20037;-45
2022/07/06 04:24:45;;;;;;;3.65;1.80;;;14.80;99.90;;;;;;5032094;28;20050;-46
2022/07/06 04:27:10;;;;;;;7.95;2.17;;;14.80;99.90;;;;;;5031769;28;20029;-44
2022/07/06 04:29:36;;;;;;;9.20;2.15;;;14.90;99.90;;;;;;5033094;28;20541;-45
2022/07/06 04:32:02;;;;;;;4.75;1.80;;;14.90;99.90;;;;;;5033154;28;20046;-45
2022/07/06 04:34:27;;;;;;;6.15;2.22;;;15.00;99.90;;;;;;5032501;28;20061;-46
2022/07/06 04:36:52;;;;;;;4.80;2.10;;;15.00;99.90;;;;;;5033485;28;20025;-43
2022/07/06 04:39:18;;;;;;;9.38;2.20;;;15.10;99.90;;;;;;5032725;28;20521;-43
2022/07/06 04:41:43;;;;;;;6.90;2.05;;;15.10;99.90;;;;;;5034260;28;20075;-43
2022/07/06 04:44:09;;;;;;;6.90;2.17;;;15.10;99.90;;;;;;5032156;28;20454;-43
2022/07/06 04:46:35;;;;;;;6.57;2.17;;;15.10;99.90;;;;;;5035038;28;20057;-43
2022/07/06 04:49:00;;;;;;;4.78;1.77;;;15.10;99.90;;;;;;5033084;28;20028;-43
2022/07/06 04:51:26;;;;;;;8.20;2.40;;;15.20;99.90;;;;;;5031550;28;20022;-43
2022/07/06 04:53:51;;;;;;;6.15;2.15;;;15.10;99.90;;;;;;5031720;28;20510;-43
2022/07/06 04:56:17;;;;;;;6.97;1.83;;;15.20;99.90;;;;;;5032927;28;20384;-43
2022/07/06 04:58:42;;;;;;;9.20;2.55;;;15.20;99.90;;;;;;5030964;28;20026;-44
2022/07/06 05:01:08;;;;;;;4.95;2.20;;;15.30;99.90;;;;;;5031465;28;20478;-43
2022/07/06 05:03:36;;;;;;;4.38;1.95;;;15.30;99.90;;;;;;5030665;28;20033;-44
2022/07/06 05:06:04;;;;;;;12.10;2.67;;;15.30;99.90;;;;;;5030290;28;20017;-43
2022/07/06 05:08:30;;;;;;;6.28;1.70;;;15.20;99.90;;;;;;5028113;28;20086;-44
2022/07/06 05:10:55;;;;;;;6.90;2.00;;;15.20;99.90;;;;;;5031851;28;20042;-43
2022/07/06 05:13:21;;;;;;;3.50;1.60;;;15.10;99.90;;;;;;5032136;28;20044;-43
2022/07/06 05:15:46;;;;;;;10.95;2.47;;;15.20;99.90;;;;;;5027730;28;20021;-45
2022/07/06 05:18:12;;;;;;;5.47;1.80;;;15.20;99.90;;;;;;5031269;28;20033;-43
2022/07/06 05:20:37;;;;;;;7.43;2.83;;;15.20;99.90;;;;;;5032016;28;20039;-43
2022/07/06 05:23:03;;;;;;;4.70;2.40;;;15.20;99.90;;;;;;5033074;28;20152;-43
2022/07/06 05:25:28;;;;;;;4.18;1.67;;;15.20;99.90;;;;;;5030956;28;20037;-44
2022/07/06 05:27:54;;;;;;;6.20;2.20;;;15.20;99.90;;;;;;5031597;28;20033;-43
2022/07/06 05:30:19;;;;;;;4.38;1.85;;;15.20;99.90;;;;;;5027452;28;20390;-44
2022/07/06 05:32:45;;;;;;;9.82;1.98;;;15.20;99.90;;;;;;5031675;28;20044;-45
2022/07/06 05:35:11;;;;;;;13.48;2.85;;;15.20;99.90;;;;;;5025066;28;20343;-44
2022/07/06 05:37:37;;;;;;;7.57;2.00;;;15.30;99.90;;;;;;5023825;28;20022;-44
2022/07/06 05:40:03;;;;;;;6.07;1.83;;;15.30;99.90;;;;;;5032782;28;20029;-44
2022/07/06 05:42:28;;;;;;;3.58;1.80;;;15.40;99.90;;;;;;5034866;28;20075;-43
2022/07/06 05:44:57;;;;;;;7.75;1.80;;;15.50;99.90;;;;;;5032371;28;20024;-47
2022/07/06 05:50:13;;;;;;;4.53;1.77;;;15.50;99.90;;;;;;5038139;28;20036;-46
2022/07/06 05:52:47;;;;;;;10.52;2.35;;;15.60;99.90;;;;;;5029748;28;20025;-47
2022/07/06 05:55:13;;;;;;;7.15;2.10;;;15.70;99.90;;;;;;5029032;28;20033;-44
2022/07/06 05:57:39;;;;;;;9.13;2.15;;;15.70;99.90;;;;;;5029483;28;20034;-44
2022/07/06 06:00:06;;;;;;;7.15;1.85;;;15.70;99.90;;;;;;5029269;28;20051;-44
2022/07/06 06:02:42;;;;;;;9.85;2.60;;;15.70;99.90;;;;;;5027935;28;20060;-47
2022/07/06 06:05:09;;;;;;;5.78;2.35;;;15.80;99.90;;;;;;5034363;28;20549;-45
2022/07/06 06:07:36;;;;;;;8.93;2.10;;;15.80;99.90;;;;;;5038530;28;20034;-44
2022/07/06 06:10:04;;;;;;;5.50;2.30;;;15.80;99.90;;;;;;5038575;28;20060;-45
2022/07/06 06:12:30;;;;;;;6.63;2.30;;;15.80;99.90;;;;;;5039675;28;20037;-46
2022/07/06 06:14:55;;;;;;;5.25;2.03;;;15.90;99.90;;;;;;5027422;28;20415;-44
2022/07/06 06:17:21;;;;;;;10.50;2.55;;;16.00;99.90;;;;;;5037644;28;20030;-44
2022/07/06 06:19:46;;;;;;;5.43;1.85;;;16.00;99.90;;;;;;5037848;28;20025;-45
2022/07/06 06:22:12;;;;;;;9.90;2.28;;;16.10;99.90;;;;;;5029380;28;20115;-44
2022/07/06 06:24:37;;;;;;;10.73;2.28;;;16.20;99.90;;;;;;5028289;28;20022;-46
2022/07/06 06:27:03;;;;;;;6.90;2.72;;;16.30;99.90;;;;;;5028224;28;20032;-46
2022/07/06 06:29:28;;;;;;;10.90;2.42;;;16.40;99.90;;;;;;5035709;28;20108;-45
2022/07/06 06:31:54;;;;;;;8.55;2.17;;;16.50;99.90;;;;;;5034373;28;20037;-48
2022/07/06 06:34:19;;;;;;;11.18;2.00;;;16.50;99.90;;;;;;5028574;28;20037;-46
2022/07/06 06:36:45;;;;;;;4.90;1.60;;;16.50;99.90;;;;;;5028981;28;20091;-46
2022/07/06 06:39:10;;;;;;;5.63;1.80;;;16.60;99.90;;;;;;5039092;28;20071;-45
2022/07/06 06:41:36;;;;;;;8.85;1.55;;;16.70;99.90;;;;;;5038360;28;20025;-45
2022/07/06 06:44:01;;;;;;;6.95;1.77;;;17.00;99.90;;;;;;5038884;28;20041;-45
2022/07/06 06:46:27;;;;;;;5.40;1.48;;;17.20;99.50;;;;;;5029359;28;20028;-47
2022/07/06 06:48:52;;;;;;;6.00;1.20;;;17.40;98.60;;;;;;5029107;28;20075;-46
2022/07/06 06:51:18;;;;;;;5.15;1.98;;;17.50;97.40;;;;;;5028621;28;20156;-46
2022/07/06 06:53:43;;;;;;;2.70;1.35;;;17.60;97.10;;;;;;5027462;28;20025;-46
2022/07/06 06:56:09;;;;;;;8.32;1.63;;;17.80;96.90;;;;;;5027005;28;20037;-46
2022/07/06 06:58:34;;;;;;;2.10;1.10;;;17.90;96.50;;;;;;5029044;28;20036;-45
2022/07/06 07:01:00;;;;;;;5.45;1.35;;;18.10;96.40;;;;;;5036983;28;20017;-46
2022/07/06 07:03:25;;;;;;;6.32;1.40;;;18.20;96.20;;;;;;5031672;28;20495;-46
2022/07/06 07:05:51;;;;;;;7.75;1.38;;;18.30;95.70;;;;;;5028705;28;20030;-46
2022/07/06 07:08:16;;;;;;;4.60;1.40;;;18.40;94.40;;;;;;5035871;28;20017;-46
2022/07/06 07:10:42;;;;;;;6.90;1.60;;;18.40;94.30;;;;;;5040318;28;20079;-45
2022/07/06 07:13:07;;;;;;;5.68;1.38;;;18.50;94.30;;;;;;5041982;28;20078;-46
2022/07/06 07:15:33;;;;;;;4.93;1.35;;;18.40;93.90;;;;;;5039599;28;20137;-43
2022/07/06 07:17:58;;;;;;;3.03;1.23;;;18.50;94.50;;;;;;5033865;28;20503;-45
2022/07/06 07:20:25;;;;;;;3.30;1.08;;;18.60;94.00;;;;;;5028557;28;20383;-45
2022/07/06 07:22:51;;;;;;;6.40;1.40;;;18.50;93.80;;;;;;5028651;28;20064;-45
2022/07/06 07:25:16;;;;;;;5.35;1.70;;;18.70;93.80;;;;;;5035689;28;20053;-45
2022/07/06 07:27:42;;;;;;;2.85;1.27;;;18.80;93.80;;;;;;5047153;28;20032;-44
2022/07/06 07:30:08;;;;;;;3.05;1.48;;;18.90;93.40;;;;;;5049254;28;20032;-45
2022/07/06 07:32:33;;;;;;;8.60;1.42;;;18.90;93.70;;;;;;5031650;28;20113;-46
2022/07/06 07:34:59;;;;;;;9.57;1.38;;;19.10;93.30;;;;;;5027575;28;20124;-46
2022/07/06 07:37:25;;;;;;;5.25;1.10;;;19.10;92.80;;;;;;5028775;28;20026;-45
2022/07/06 07:39:50;;;;;;;8.38;1.48;;;19.20;93.10;;;;;;5039384;28;20411;-45
2022/07/06 07:42:16;;;;;;;2.72;1.65;;;19.30;92.90;;;;;;5048368;28;20078;-45
2022/07/06 07:44:41;;;;;;;5.97;1.50;;;19.20;92.20;;;;;;5032124;28;20087;-44
2022/07/06 07:47:07;;;;;;;4.63;1.35;;;19.30;92.30;;;;;;5028383;28;20387;-45
2022/07/06 07:49:32;;;;;;;4.22;1.10;;;19.20;92.00;;;;;;5028185;28;20387;-46
2022/07/06 07:51:58;;;;;;;5.35;1.45;;;19.30;92.20;;;;;;5028142;28;20029;-45
2022/07/06 07:54:23;;;;;;;4.05;1.67;;;19.50;91.90;;;;;;5027630;28;20167;-46
2022/07/06 07:56:49;;;;;;;8.10;1.73;;;19.50;91.50;;;;;;5028332;28;20037;-45
2022/07/06 07:59:14;;;;;;;4.25;0.90;;;19.50;90.90;;;;;;5026735;28;20060;-47
2022/07/06 08:01:40;;;;;;;2.88;1.15;;;19.40;90.60;;;;;;5027060;28;20503;-46
2022/07/06 08:04:05;;;;;;;2.85;1.20;;;19.40;90.70;;;;;;5032088;28;20029;-46
2022/07/06 08:06:31;;;;;;;3.83;1.33;;;19.60;90.60;;;;;;5039905;28;20172;-45
2022/07/06 08:08:57;;;;;;;4.68;1.73;;;19.60;90.40;;;;;;5037346;28;20108;-45
2022/07/06 08:11:22;;;;;;;3.00;1.15;;;19.60;90.10;;;;;;5043946;28;20024;-45
2022/07/06 08:13:48;;;;;;;5.95;1.20;;;19.60;89.80;;;;;;5047964;28;20207;-45
2022/07/06 08:16:13;;;;;;;2.95;1.00;;;19.90;86.80;;;;;;5047682;28;20072;-49
2022/07/06 08:18:39;;;;;;;3.58;0.80;;;19.90;87.20;;;;;;5035995;28;20037;-46
2022/07/06 08:21:05;;;;;;;7.05;1.52;;;20.20;86.40;;;;;;5028350;28;20386;-45
2022/07/06 08:23:31;;;;;;;3.83;1.30;;;20.40;84.70;;;;;;5035298;28;20017;-46
2022/07/06 08:25:56;;;;;;;2.75;1.30;;;20.40;84.40;;;;;;5039280;28;20060;-45
2022/07/06 08:28:22;;;;;;;7.80;1.45;;;20.20;85.10;;;;;;5028939;28;20545;-46
2022/07/06 08:30:47;;;;;;;7.55;0.77;;;20.30;85.90;;;;;;5042006;28;20032;-45
2022/07/06 08:33:13;;;;;;;2.35;0.90;;;20.40;85.50;;;;;;5050602;28;20051;-46
2022/07/06 08:35:39;;;;;;;4.10;1.10;;;20.50;85.60;;;;;;5050877;28;20041;-46
2022/07/06 08:38:04;;;;;;;4.35;1.10;;;20.30;84.30;;;;;;5029467;28;20423;-46
2022/07/06 08:40:34;;;;;;;3.08;1.00;;;20.30;84.20;;;;;;5036171;28;20025;-46
2022/07/06 08:43:00;;;;;;;5.13;1.10;;;20.10;85.80;;;;;;5031277;28;20483;-45
2022/07/06 08:45:26;;;;;;;7.40;1.55;;;19.90;85.20;;;;;;5030758;28;20037;-45
2022/07/06 08:47:54;;;;;;;3.53;1.30;;;19.90;86.20;;;;;;5030982;28;20033;-46
2022/07/06 08:50:20;;;;;;;5.82;1.48;;;19.80;86.50;;;;;;5031207;28;20033;-45
2022/07/06 08:52:47;;;;;;;3.80;1.30;;;19.70;86.80;;;;;;5038298;28;20029;-45
2022/07/06 08:55:14;;;;;;;4.18;1.33;;;19.50;87.60;;;;;;5041632;28;20106;-45
2022/07/06 08:57:40;;;;;;;10.25;2.30;;;19.50;86.20;;;;;;5037156;28;20025;-45
2022/07/06 09:00:08;;;;;;;6.85;1.20;;;19.20;86.20;;;;;;5030873;28;20104;-48
2022/07/06 09:02:34;;;;;;;6.43;1.35;;;19.00;86.80;;;;;;5030543;28;20509;-47
2022/07/06 09:05:02;;;;;;;8.68;1.73;;;19.00;87.10;;;;;;5035153;28;20063;-46
2022/07/06 09:07:29;;;;;;;18.23;2.63;;;19.20;89.40;;;;;;5035834;28;20022;-45
2022/07/06 09:09:57;;;;;;;5.10;1.77;;;19.30;85.90;;;;;;5029453;28;20175;-45
2022/07/06 09:12:26;;;;;;;7.65;1.40;;;19.50;85.30;;;;;;5030808;28;20032;-45
2022/07/06 09:14:57;;;;;;;7.28;1.85;;;19.60;85.30;;;;;;5031985;28;20121;-45
2022/07/06 09:17:29;;;;;;;8.85;1.20;;;19.70;84.00;;;;;;5042459;28;20021;-45
2022/07/06 09:19:56;;;;;;;7.88;1.35;;;20.00;82.90;;;;;;5042543;28;20400;-46
2022/07/06 09:22:31;;;;;;;9.85;2.03;;;20.60;81.70;;;;;;5020096;28;20025;-45
2022/07/06 09:25:13;;;;;;;4.65;1.02;;;21.50;79.90;;;;;;5024428;28;20206;-46
2022/07/06 09:27:41;;;;;;;4.88;0.70;;;22.70;75.50;;;;;;5031978;28;20025;-45
2022/07/06 09:30:08;;;;;;;2.88;1.02;;;23.00;71.40;;;;;;5020668;28;20541;-45
2022/07/06 09:32:45;;;;;;;5.85;0.85;;;23.50;69.90;;;;;;5034120;28;20502;-45
2022/07/06 09:35:29;;;;;;;3.80;1.05;;;23.60;68.30;;;;;;5026935;28;20086;-46
2022/07/06 09:38:00;;;;;;;6.65;1.00;;;23.30;68.60;;;;;;5028642;28;20112;-46
2022/07/06 09:40:26;;;;;;;4.10;1.08;;;22.80;69.60;;;;;;5030184;28;20021;-45
2022/07/06 09:43:07;;;;;;;2.75;1.10;;;22.30;69.80;;;;;;5028482;28;20032;-44
2022/07/06 09:45:34;;;;;;;2.78;0.70;;;22.00;71.30;;;;;;5036164;28;20635;-47
2022/07/06 09:48:10;;;;;;;9.35;1.85;;;22.10;71.70;;;;;;5036416;28;20061;-45
2022/07/06 09:50:50;;;;;;;1.20;0.73;;;22.00;71.20;;;;;;5030385;28;20394;-47
2022/07/06 09:53:17;;;;;;;4.03;0.90;;;22.30;67.90;;;;;;5012150;28;20083;-45
2022/07/06 09:55:54;;;;;;;5.18;0.90;;;22.10;69.50;;;;;;5029573;28;20075;-45
2022/07/06 09:58:20;;;;;;;3.13;1.13;;;22.00;69.50;;;;;;5029628;28;20065;-46
2022/07/06 10:00:46;;;;;;;2.40;0.75;;;21.60;69.60;;;;;;5036516;28;20025;-45
2022/07/06 10:03:13;;;;;;;1.50;0.70;;;21.40;70.90;;;;;;5041263;28;20616;-45
2022/07/06 10:05:41;;;;;;;4.18;0.80;;;21.20;69.70;;;;;;5029106;28;20498;-45
2022/07/06 10:08:09;;;;;;;0.82;0.50;;;21.00;71.80;;;;;;5029604;28;20175;-45
2022/07/06 10:10:36;;;;;;;5.25;0.90;;;22.70;70.30;;;;;;5028473;28;20033;-46
2022/07/06 10:13:03;;;;;;;4.13;1.13;;;23.70;64.40;;;;;;5029302;28;20401;-45
2022/07/06 10:15:33;;;;;;;3.33;0.93;;;23.50;63.30;;;;;;5036569;28;20321;-47
2022/07/06 10:18:00;;;;;;;3.45;0.80;;;23.50;65.40;;;;;;5041686;28;20079;-46
2022/07/06 10:20:30;;;;;;;0.50;0.50;;;23.10;65.00;;;;;;5037836;28;20033;-47
2022/07/06 10:23:02;;;;;;;3.58;0.70;;;22.80;65.90;;;;;;5027229;28;20013;-45
2022/07/06 10:25:28;;;;;;;1.10;0.60;;;22.50;64.80;;;;;;5031486;28;20398;-47
2022/07/06 10:27:54;;;;;;;4.13;1.00;;;22.10;66.40;;;;;;5029063;28;20026;-45
2022/07/06 10:30:21;;;;;;;2.85;0.82;;;21.80;67.00;;;;;;5034657;28;20048;-47
2022/07/06 10:32:49;;;;;;;5.35;1.00;;;21.80;67.70;;;;;;5029671;28;20029;-48
2022/07/06 10:35:17;;;;;;;2.88;1.02;;;22.00;67.40;;;;;;5032067;28;20025;-46
2022/07/06 10:37:43;;;;;;;4.20;0.80;;;22.40;66.10;;;;;;5030228;28;20028;-47
2022/07/06 10:43:01;;;;;;;4.07;1.00;;;22.10;66.70;;;;;;5019246;28;20048;-46
2022/07/06 10:45:26;;;;;;;5.78;1.27;;;21.80;67.10;;;;;;5027495;28;20033;-46
2022/07/06 10:48:10;;;;;;;2.65;1.00;;;21.60;67.60;;;;;;5042615;28;20493;-46
2022/07/06 10:50:37;;;;;;;2.15;0.77;;;21.50;67.30;;;;;;5049191;28;20035;-46
2022/07/06 10:53:11;;;;;;;7.50;1.35;;;21.40;68.40;;;;;;5044317;28;20021;-45
2022/07/06 10:55:40;;;;;;;1.92;0.82;;;21.30;68.50;;;;;;5038264;28;20029;-45
2022/07/06 10:58:06;;;;;;;3.67;0.77;;;21.40;68.50;;;;;;5043436;28;20022;-45
2022/07/06 11:00:52;;;;;;;1.33;0.70;;;21.60;67.10;;;;;;5036448;28;20493;-46
2022/07/06 11:03:29;;;;;;;3.47;1.30;;;21.60;67.80;;;;;;5035051;28;20021;-45
2022/07/06 11:05:59;;;;;;;4.55;1.23;;;21.30;68.50;;;;;;5028351;28;20026;-45
2022/07/06 11:08:47;;;;;;;2.13;0.98;;;21.20;70.40;;;;;;5028551;28;20521;-46
2022/07/06 11:11:25;;;;;;;4.47;0.98;;;21.20;69.10;;;;;;5027607;28;20040;-44
2022/07/06 11:13:52;;;;;;;4.75;1.08;;;21.40;69.10;;;;;;5024175;28;20079;-46
2022/07/06 11:16:19;;;;;;;5.97;1.45;;;21.40;69.40;;;;;;5036346;28;20025;-45
2022/07/06 11:18:50;;;;;;;3.35;1.02;;;21.40;70.20;;;;;;5038263;28;20600;-45
2022/07/06 11:21:20;;;;;;;3.67;0.70;;;21.70;68.40;;;;;;5033432;28;20048;-46
2022/07/06 11:23:47;;;;;;;;;;;21.90;66.90;;;;;;5028867;28;20033;-44
2022/07/06 11:26:13;;;;;;;4.03;1.35;;;22.10;66.00;;;;;;5024294;28;19953;-44
2022/07/06 11:28:39;;;;;;;5.05;0.80;;;22.20;65.40;;;;;;5022039;28;20101;-45
2022/07/06 11:31:05;;;;;;;2.80;1.10;;;22.40;65.20;;;;;;5024233;28;20558;-45
2022/07/06 11:33:31;;;;;;;2.85;0.77;;;22.30;66.50;;;;;;5025145;28;20025;-48
2022/07/06 11:36:16;;;;;;;2.17;0.80;;;22.10;66.20;;;;;;5048227;28;20032;-44
2022/07/06 11:38:42;;;;;;;3.38;0.98;;;22.10;66.60;;;;;;5056735;28;20051;-46
2022/07/06 11:41:08;;;;;;;5.47;1.08;;;21.70;66.50;;;;;;5065500;28;20039;-45
2022/07/06 11:43:33;;;;;;;7.38;1.30;;;21.60;67.50;;;;;;5052702;28;20068;-49
2022/07/06 11:45:59;;;;;;;3.45;1.08;;;21.60;68.10;;;;;;5040136;28;20033;-46
2022/07/06 11:48:24;;;;;;;13.20;1.58;;;21.50;67.80;;;;;;5044573;28;20104;-49
2022/07/06 11:51:00;;;;;;;3.35;1.25;;;21.40;68.60;;;;;;5039526;28;20100;-46
2022/07/06 11:53:26;;;;;;;4.07;0.88;;;21.30;68.10;;;;;;5038035;28;20035;-46
2022/07/06 11:55:52;;;;;;;2.25;0.80;;;21.10;68.60;;;;;;5027785;28;20034;-46
2022/07/06 11:58:21;;;;;;;5.00;0.93;;;21.20;69.30;;;;;;5034672;28;20604;-46
2022/07/06 12:01:10;;;;;;;3.40;1.20;;;21.40;67.70;;;;;;5039677;28;20133;-45
2022/07/06 12:03:36;;;;;;;2.85;1.08;;;21.40;68.40;;;;;;5010289;28;20030;-45
2022/07/06 12:06:06;;;;;;;2.30;0.85;;;21.60;68.40;;;;;;5024011;28;20104;-46
2022/07/06 12:08:40;;;;;;;3.55;1.10;;;21.70;67.00;;;;;;5041564;28;20416;-44
2022/07/06 12:11:05;;;;;;;1.60;0.80;;;21.80;67.00;;;;;;5031878;28;20061;-48
2022/07/06 12:13:38;;;;;;;3.90;1.40;;;21.60;67.40;;;;;;5031889;28;20076;-46
2022/07/06 12:16:12;;;;;;;2.67;1.00;;;21.40;67.00;;;;;;5037076;28;20029;-46
2022/07/06 12:18:42;;;;;;;2.30;0.82;;;21.30;67.80;;;;;;5043239;28;20025;-46
2022/07/06 12:21:13;;;;;;;7.15;1.02;;;21.40;67.70;;;;;;5051686;28;20023;-47
2022/07/06 12:23:40;;;;;;;5.97;0.90;;;21.40;68.70;;;;;;5033906;28;20103;-46
2022/07/06 12:26:06;;;;;;;2.05;1.00;;;21.40;68.30;;;;;;5035935;28;20374;-46
2022/07/06 12:28:32;;;;;;;4.05;1.00;;;21.40;68.50;;;;;;5042951;28;20498;-46
2022/07/06 12:30:57;;;;;;;4.70;1.00;;;21.60;67.20;;;;;;5039813;28;20073;-46
2022/07/06 12:33:23;;;;;;;5.30;1.10;;;22.00;67.20;;;;;;5031452;28;20180;-45
2022/07/06 12:35:48;;;;;;;7.35;1.20;;;22.60;66.90;;;;;;5031758;28;20060;-46
2022/07/06 12:38:22;;;;;;;1.52;0.90;;;23.00;63.60;;;;;;5031461;28;20129;-45
2022/07/06 12:40:47;;;;;;;3.28;0.75;;;22.90;63.60;;;;;;5029898;28;20037;-45
2022/07/06 12:43:13;;;;;;;3.13;0.90;;;22.70;64.40;;;;;;5029740;28;20026;-45
2022/07/06 12:45:39;;;;;;;5.55;1.48;;;22.20;65.10;;;;;;5038713;28;20013;-46
2022/07/06 12:48:05;;;;;;;3.55;1.13;;;21.80;67.30;;;;;;5044544;28;20095;-47
2022/07/06 12:50:36;;;;;;;3.00;0.93;;;21.60;67.80;;;;;;5047899;28;20029;-46
2022/07/06 12:53:03;;;;;;;3.20;1.17;;;21.40;68.30;;;;;;5022378;28;20037;-46